Time;durP1;ratioP1;P1;durP2;ratioP2;P2;SDS_P1;SDS_P2;PMS_P1;PMS_P2;Temp;Humidity;BMP_temperature;BMP_pressure;BME280_temperature;BME280_humidity;BME280_pressure;Samples;Min_cycle;Max_cycle;Signal;HPM_P1;HPM_P2
2022/02/01 00:01:56;;;;;;;27.88;3.88;;;4.60;99.90;;;;;;5050329;28;20041;-63
2022/02/01 00:04:42;;;;;;;34.65;5.28;;;4.70;99.90;;;;;;5067316;28;20067;-63
2022/02/01 00:12:38;;;;;;;22.02;4.10;;;4.70;99.90;;;;;;5050023;28;20052;-63
2022/02/01 00:39:08;;;;;;;33.88;4.63;;;4.40;99.90;;;;;;5050492;28;20057;-63
2022/02/01 00:41:39;;;;;;;49.22;6.57;;;4.20;99.90;;;;;;5051419;28;20072;-62
2022/02/01 00:44:05;;;;;;;35.58;5.45;;;4.10;99.90;;;;;;5061239;28;20084;-63
2022/02/01 00:46:31;;;;;;;46.78;5.82;;;4.10;99.90;;;;;;5067859;28;20076;-62
2022/02/01 00:48:57;;;;;;;32.30;5.40;;;4.10;99.90;;;;;;5030016;28;20045;-64
2022/02/01 00:51:23;;;;;;;40.75;7.15;;;4.20;99.90;;;;;;5045332;28;20053;-63
2022/02/01 00:53:48;;;;;;;27.45;4.35;;;4.20;99.90;;;;;;5065376;28;20483;-63
2022/02/01 00:56:15;;;;;;;34.88;4.38;;;4.20;99.90;;;;;;5062923;28;20041;-62
2022/02/01 00:58:41;;;;;;;44.25;7.65;;;4.20;99.90;;;;;;5066240;28;20044;-63
2022/02/01 01:01:07;;;;;;;41.45;6.00;;;4.20;99.90;;;;;;5065752;28;20051;-63
2022/02/01 01:03:34;;;;;;;36.75;8.00;;;4.20;99.90;;;;;;5068623;28;20131;-63
2022/02/01 01:06:00;;;;;;;31.25;5.78;;;4.20;99.90;;;;;;5037581;28;20433;-62
2022/02/01 01:08:27;;;;;;;39.10;6.68;;;4.30;99.90;;;;;;5073031;28;20094;-63
2022/02/01 01:10:53;;;;;;;40.72;7.93;;;4.30;99.90;;;;;;5048718;28;20059;-63
2022/02/01 01:16:15;;;;;;;34.60;5.65;;;4.50;99.90;;;;;;5058012;28;20063;-63
2022/02/01 01:54:10;;;;;;;28.63;5.10;;;4.70;99.90;;;;;;5039242;28;20533;-62
2022/02/01 01:56:36;;;;;;;31.67;4.65;;;4.70;99.90;;;;;;5048020;28;20577;-63
2022/02/01 01:59:04;;;;;;;29.73;4.55;;;4.70;99.90;;;;;;5047028;28;20065;-63
2022/02/01 02:01:31;;;;;;;33.30;5.90;;;4.70;99.90;;;;;;5045742;28;20090;-63
2022/02/01 02:03:58;;;;;;;25.02;3.65;;;4.70;99.90;;;;;;5036490;28;20502;-63
2022/02/01 02:06:24;;;;;;;33.80;4.70;;;4.60;99.90;;;;;;5047183;28;20060;-63
2022/02/01 02:08:53;;;;;;;23.60;4.20;;;4.60;99.90;;;;;;5047618;28;20045;-63
2022/02/01 02:11:27;;;;;;;22.77;3.53;;;4.60;99.90;;;;;;5046544;28;20449;-63
2022/02/01 02:16:49;;;;;;;22.70;2.38;;;4.50;99.90;;;;;;5035194;28;20124;-62
2022/02/01 02:19:15;;;;;;;17.23;2.15;;;4.50;99.90;;;;;;5046884;28;20072;-62
2022/02/01 02:21:46;;;;;;;25.10;5.07;;;4.60;99.90;;;;;;5062533;28;20153;-63
2022/02/01 02:24:12;;;;;;;9.38;1.20;;;4.60;99.90;;;;;;5044562;28;20140;-62
2022/02/01 02:26:38;;;;;;;14.23;2.28;;;4.50;99.90;;;;;;5033568;28;20095;-63
2022/02/01 02:29:05;;;;;;;17.17;2.47;;;4.60;99.90;;;;;;5046119;28;20088;-62
2022/02/01 02:31:36;;;;;;;14.10;2.30;;;4.60;99.90;;;;;;5046837;28;20045;-63
2022/02/01 02:34:08;;;;;;;19.08;2.38;;;4.50;99.90;;;;;;5035469;28;20042;-62
2022/02/01 02:36:36;;;;;;;22.45;2.63;;;4.40;99.90;;;;;;5044068;28;20045;-62
2022/02/01 02:42:07;;;;;;;12.20;1.90;;;4.30;99.90;;;;;;5037973;28;20055;-63
2022/02/01 02:47:22;;;;;;;15.25;1.40;;;4.20;99.90;;;;;;5047206;28;20072;-63
2022/02/01 02:49:48;;;;;;;12.63;2.60;;;4.20;99.90;;;;;;5044186;28;20089;-63
2022/02/01 02:52:14;;;;;;;9.75;2.10;;;4.20;99.90;;;;;;5040974;28;20045;-62
2022/02/01 02:54:40;;;;;;;15.85;2.40;;;4.20;99.90;;;;;;5046064;28;20057;-63
2022/02/01 02:57:06;;;;;;;23.15;4.05;;;4.20;99.90;;;;;;5046660;28;20047;-63
2022/02/01 02:59:33;;;;;;;24.27;1.90;;;4.20;99.90;;;;;;5044722;28;20502;-62
2022/02/01 03:01:59;;;;;;;5.60;1.15;;;4.10;99.90;;;;;;5044533;28;20041;-63
2022/02/01 03:04:30;;;;;;;6.35;0.85;;;4.20;99.90;;;;;;5038712;28;20049;-62
2022/02/01 03:06:56;;;;;;;24.17;1.85;;;4.20;99.90;;;;;;5045659;28;20048;-63
2022/02/01 03:09:24;;;;;;;14.68;2.13;;;4.20;99.90;;;;;;5062289;28;20098;-62
2022/02/01 03:11:52;;;;;;;15.27;2.10;;;4.10;99.90;;;;;;5043749;28;20080;-62
2022/02/01 03:14:41;;;;;;;9.20;1.42;;;4.20;99.90;;;;;;5045470;28;20079;-63
2022/02/01 03:19:56;;;;;;;8.60;1.40;;;4.10;99.90;;;;;;5046320;28;20344;-63
2022/02/01 03:22:26;;;;;;;2.55;0.43;;;4.10;99.90;;;;;;5046044;28;20049;-62
2022/02/01 03:24:55;;;;;;;4.40;1.17;;;4.10;99.90;;;;;;5044888;28;20106;-63
2022/02/01 03:27:22;;;;;;;17.43;1.50;;;4.20;99.90;;;;;;5045494;28;20538;-63
2022/02/01 03:29:49;;;;;;;16.02;1.80;;;4.10;99.90;;;;;;5044888;28;20935;-62
2022/02/01 03:32:15;;;;;;;14.88;2.65;;;4.20;99.90;;;;;;5048933;28;20072;-63
2022/02/01 03:34:41;;;;;;;21.55;3.03;;;4.10;99.90;;;;;;5048385;28;20852;-62
2022/02/01 03:37:07;;;;;;;15.02;2.70;;;4.10;99.90;;;;;;5049716;28;20114;-62
2022/02/01 03:39:33;;;;;;;13.85;2.13;;;4.00;99.90;;;;;;5049376;28;20045;-63
2022/02/01 03:42:01;;;;;;;8.23;1.17;;;4.10;99.90;;;;;;5064458;28;20033;-63
2022/02/01 03:44:27;;;;;;;15.07;2.60;;;4.10;99.90;;;;;;5052950;28;20056;-62
2022/02/01 03:47:01;;;;;;;16.27;2.03;;;4.10;99.90;;;;;;5068936;28;20119;-63
2022/02/01 03:49:32;;;;;;;10.48;1.33;;;4.20;99.90;;;;;;5032400;28;20082;-62
2022/02/01 03:51:58;;;;;;;5.95;0.88;;;4.10;99.90;;;;;;5068282;28;20383;-63
2022/02/01 03:54:32;;;;;;;10.80;1.30;;;4.10;99.90;;;;;;5049928;28;20076;-62
2022/02/01 03:56:59;;;;;;;12.18;2.00;;;4.10;99.90;;;;;;5069911;28;20448;-62
2022/02/01 03:59:26;;;;;;;19.73;3.03;;;4.00;99.90;;;;;;5069309;28;20546;-62
2022/02/01 04:01:55;;;;;;;14.48;2.63;;;4.00;99.90;;;;;;5068474;28;20043;-62
2022/02/01 04:04:25;;;;;;;13.60;2.13;;;4.00;99.90;;;;;;5037379;28;20442;-62
2022/02/01 04:06:52;;;;;;;6.43;1.02;;;4.00;99.90;;;;;;5068463;28;20047;-62
2022/02/01 04:09:18;;;;;;;1.92;0.68;;;4.00;99.90;;;;;;5068532;28;20041;-63
2022/02/01 04:11:44;;;;;;;8.65;1.48;;;3.90;99.90;;;;;;5068788;28;20054;-62
2022/02/01 04:14:14;;;;;;;11.02;1.33;;;3.90;99.90;;;;;;5068949;28;20436;-62
2022/02/01 04:16:40;;;;;;;;;;;3.90;99.90;;;;;;5062202;28;20048;-62
2022/02/01 04:19:06;;;;;;;2.60;1.02;;;3.80;99.90;;;;;;5069207;28;19932;-62
2022/02/01 04:21:32;;;;;;;2.20;0.55;;;3.80;99.90;;;;;;5057632;28;20049;-63
2022/02/01 04:23:57;;;;;;;4.03;0.63;;;3.80;99.90;;;;;;5063905;28;20029;-63
2022/02/01 04:26:23;;;;;;;3.45;0.50;;;3.80;99.90;;;;;;5044682;28;20076;-62
2022/02/01 04:28:49;;;;;;;6.18;0.90;;;3.80;99.90;;;;;;5064738;28;20085;-63
2022/02/01 04:31:14;;;;;;;4.93;1.48;;;3.80;99.90;;;;;;5063209;28;20049;-62
2022/02/01 04:33:40;;;;;;;9.13;1.58;;;3.80;99.90;;;;;;5062758;28;20052;-63
2022/02/01 04:36:06;;;;;;;9.70;1.50;;;3.90;99.90;;;;;;5062891;28;20041;-62
2022/02/01 04:38:35;;;;;;;8.32;1.63;;;3.90;99.90;;;;;;5057554;28;20052;-63
2022/02/01 04:41:01;;;;;;;4.07;0.68;;;3.80;99.90;;;;;;5047766;28;20068;-62
2022/02/01 04:43:28;;;;;;;6.40;1.33;;;3.90;99.90;;;;;;5062293;28;20155;-62
2022/02/01 04:45:54;;;;;;;4.05;0.60;;;3.80;99.90;;;;;;5062555;28;20166;-62
2022/02/01 04:48:20;;;;;;;11.27;1.25;;;3.80;99.90;;;;;;5045442;28;20132;-62
2022/02/01 04:50:45;;;;;;;9.98;1.00;;;3.80;99.90;;;;;;5059883;28;20079;-62
2022/02/01 04:53:11;;;;;;;2.80;0.75;;;3.80;99.90;;;;;;5050465;28;20258;-62
2022/02/01 04:55:54;;;;;;;12.25;1.65;;;3.90;99.90;;;;;;5062214;28;20037;-63
2022/02/01 04:58:24;;;;;;;2.60;0.47;;;3.80;99.90;;;;;;5045336;28;20053;-62
2022/02/01 05:00:50;;;;;;;7.93;0.85;;;3.80;99.90;;;;;;5067899;28;20546;-62
2022/02/01 05:03:16;;;;;;;1.17;0.40;;;3.80;99.90;;;;;;5071012;28;20066;-62
2022/02/01 05:05:43;;;;;;;2.20;0.40;;;3.80;99.90;;;;;;5063201;28;20511;-62
2022/02/01 05:08:10;;;;;;;7.03;0.60;;;3.80;99.90;;;;;;5044117;28;20080;-62
2022/02/01 05:10:37;;;;;;;11.10;1.08;;;3.80;99.90;;;;;;5050976;28;20517;-62
2022/02/01 05:15:39;;;;;;;8.45;1.20;;;3.90;99.90;;;;;;5068717;28;20048;-62
2022/02/01 05:18:05;;;;;;;11.02;0.90;;;3.90;99.90;;;;;;5067134;28;20441;-62
2022/02/01 05:20:57;;;;;;;5.13;0.98;;;3.80;99.90;;;;;;5049385;28;20091;-62
2022/02/01 05:23:18;;;;;;;9.45;1.25;;;3.80;99.90;;;;;;5054012;28;20044;-62
2022/02/01 05:25:44;;;;;;;8.57;1.20;;;3.80;99.90;;;;;;5067901;28;20055;-62
2022/02/01 05:28:10;;;;;;;14.10;2.85;;;3.80;99.90;;;;;;5067929;28;20151;-62
2022/02/01 05:30:36;;;;;;;6.18;1.58;;;3.80;99.90;;;;;;5067282;28;20060;-63
2022/02/01 05:33:02;;;;;;;7.03;1.50;;;3.80;99.90;;;;;;5065936;28;20080;-63
2022/02/01 05:35:29;;;;;;;9.27;1.48;;;3.80;99.90;;;;;;5067486;28;20663;-62
2022/02/01 05:37:55;;;;;;;7.55;1.10;;;3.90;99.90;;;;;;5068115;28;20056;-62
2022/02/01 05:40:21;;;;;;;8.93;1.05;;;3.90;99.90;;;;;;5067996;28;20045;-62
2022/02/01 05:42:58;;;;;;;17.60;2.05;;;3.90;99.90;;;;;;5048072;28;20089;-62
2022/02/01 05:45:25;;;;;;;5.55;0.98;;;3.90;99.90;;;;;;5030369;28;20118;-62
2022/02/01 05:47:51;;;;;;;10.02;1.30;;;4.00;99.90;;;;;;5041747;28;20566;-63
2022/02/01 05:50:17;;;;;;;13.38;1.60;;;4.00;99.90;;;;;;5067929;28;20032;-62
2022/02/01 05:52:43;;;;;;;9.02;1.75;;;4.10;99.90;;;;;;5058188;28;20418;-63
2022/02/01 05:55:13;;;;;;;9.68;1.38;;;4.10;99.90;;;;;;5063684;28;20048;-63
2022/02/01 05:57:39;;;;;;;7.40;1.48;;;4.10;99.90;;;;;;5049867;28;20105;-63
2022/02/01 06:00:07;;;;;;;12.30;1.67;;;4.20;99.90;;;;;;5066531;28;20036;-62
2022/02/01 06:02:33;;;;;;;9.38;1.88;;;4.20;99.90;;;;;;5048203;28;20079;-62
2022/02/01 06:04:59;;;;;;;22.15;2.55;;;4.20;99.90;;;;;;5066821;28;20193;-62
2022/02/01 06:07:24;;;;;;;13.75;2.38;;;4.20;99.90;;;;;;5067476;28;20578;-62
2022/02/01 06:09:50;;;;;;;13.10;1.63;;;4.20;99.90;;;;;;5048265;28;20383;-62
2022/02/01 06:12:17;;;;;;;16.27;2.40;;;4.20;99.90;;;;;;5049149;28;20056;-63
2022/02/01 06:14:43;;;;;;;8.68;1.65;;;4.20;99.90;;;;;;5021702;28;20402;-62
2022/02/01 06:17:08;;;;;;;15.43;2.03;;;4.30;99.90;;;;;;5066812;28;20055;-63
2022/02/01 06:19:34;;;;;;;12.80;1.80;;;4.30;99.90;;;;;;5067215;28;20360;-62
2022/02/01 06:22:04;;;;;;;14.05;2.20;;;4.30;99.90;;;;;;5048521;28;20503;-62
2022/02/01 06:24:31;;;;;;;12.25;2.00;;;4.30;99.90;;;;;;5023995;28;20146;-62
2022/02/01 06:26:57;;;;;;;11.40;1.50;;;4.40;99.90;;;;;;5066278;28;20521;-62
2022/02/01 06:29:23;;;;;;;18.80;2.05;;;4.40;99.90;;;;;;5066807;28;20072;-62
2022/02/01 06:31:49;;;;;;;16.05;1.83;;;4.40;99.90;;;;;;5066272;28;20044;-62
2022/02/01 06:34:15;;;;;;;11.90;1.17;;;4.40;99.90;;;;;;5046814;28;20087;-62
2022/02/01 06:36:40;;;;;;;21.60;2.35;;;4.40;99.90;;;;;;5048272;28;20044;-62
2022/02/01 06:39:07;;;;;;;8.75;1.45;;;4.40;99.90;;;;;;5047824;28;20364;-63
2022/02/01 06:41:35;;;;;;;7.88;1.13;;;4.50;99.90;;;;;;5067180;28;20052;-62
2022/02/01 06:44:06;;;;;;;20.65;2.65;;;4.60;99.90;;;;;;5048280;28;20457;-62
2022/02/01 06:46:32;;;;;;;9.98;1.92;;;4.60;99.90;;;;;;5063889;28;20060;-63
2022/02/01 06:48:59;;;;;;;12.93;1.50;;;4.60;99.90;;;;;;5066538;28;20118;-62
2022/02/01 06:51:27;;;;;;;22.63;2.28;;;4.60;99.90;;;;;;5066729;28;20051;-62
2022/02/01 06:53:55;;;;;;;16.38;2.03;;;4.60;99.90;;;;;;5066806;28;20090;-62
2022/02/01 06:56:28;;;;;;;14.43;2.17;;;4.60;99.90;;;;;;5033835;28;20110;-62
2022/02/01 06:58:56;;;;;;;8.57;2.60;;;4.70;99.90;;;;;;5066320;28;20135;-62
2022/02/01 07:01:22;;;;;;;19.23;2.88;;;4.80;99.90;;;;;;5065381;28;20421;-63
2022/02/01 07:03:48;;;;;;;8.13;1.15;;;4.80;99.90;;;;;;5066762;28;20303;-62
2022/02/01 07:06:13;;;;;;;21.90;2.72;;;4.80;99.90;;;;;;5045630;28;20042;-63
2022/02/01 07:08:42;;;;;;;12.95;1.27;;;4.90;99.90;;;;;;5048343;28;20044;-62
2022/02/01 07:11:09;;;;;;;13.68;1.98;;;4.90;99.90;;;;;;5065160;28;20041;-63
2022/02/01 07:13:35;;;;;;;15.20;2.45;;;4.90;99.90;;;;;;5064592;28;20068;-62
2022/02/01 07:16:01;;;;;;;19.52;2.92;;;4.90;99.90;;;;;;5065727;28;20452;-62
2022/02/01 07:18:26;;;;;;;21.67;2.95;;;4.90;99.90;;;;;;5053876;28;20048;-62
2022/02/01 07:20:52;;;;;;;22.67;2.85;;;4.90;99.90;;;;;;5066793;28;20044;-62
2022/02/01 07:23:23;;;;;;;15.35;2.78;;;4.90;99.90;;;;;;5065103;28;20059;-63
2022/02/01 07:25:51;;;;;;;20.08;4.18;;;4.80;99.90;;;;;;5049271;28;20045;-63
2022/02/01 07:28:17;;;;;;;15.38;2.30;;;4.80;99.90;;;;;;5063481;28;20044;-63
2022/02/01 07:30:47;;;;;;;30.40;4.30;;;4.80;99.90;;;;;;5064711;28;20403;-62
2022/02/01 07:33:13;;;;;;;19.67;3.00;;;4.80;99.90;;;;;;5047914;28;20051;-63
2022/02/01 07:35:39;;;;;;;9.10;2.50;;;4.80;99.90;;;;;;5064138;28;20325;-62
2022/02/01 07:38:07;;;;;;;9.10;2.00;;;4.80;99.90;;;;;;5064931;28;20382;-62
2022/02/01 07:40:33;;;;;;;10.10;2.05;;;4.80;99.90;;;;;;5040365;28;20037;-62
2022/02/01 07:42:59;;;;;;;11.60;2.72;;;4.80;99.90;;;;;;5066314;28;20037;-62
2022/02/01 07:45:28;;;;;;;16.30;2.65;;;4.80;99.90;;;;;;5064477;28;20135;-63
2022/02/01 07:47:56;;;;;;;10.10;2.17;;;4.70;99.90;;;;;;5063328;28;20037;-63
2022/02/01 07:50:22;;;;;;;8.40;1.60;;;4.70;99.90;;;;;;5064591;28;20298;-62
2022/02/01 07:52:47;;;;;;;15.38;2.92;;;4.70;99.90;;;;;;5030363;28;20090;-62
2022/02/01 07:55:13;;;;;;;11.45;2.30;;;4.70;99.90;;;;;;5037795;28;20079;-63
2022/02/01 07:57:39;;;;;;;11.80;2.47;;;4.80;99.90;;;;;;5075617;28;20518;-62
2022/02/01 08:00:07;;;;;;;12.27;2.80;;;4.80;99.90;;;;;;5065606;28;20036;-62
2022/02/01 08:02:34;;;;;;;6.53;1.40;;;4.80;99.90;;;;;;5064023;28;20105;-62
2022/02/01 08:05:00;;;;;;;9.43;2.45;;;4.80;99.90;;;;;;5061737;28;20049;-62
2022/02/01 08:07:25;;;;;;;13.63;2.83;;;4.80;99.90;;;;;;5044037;28;20059;-62
2022/02/01 08:09:56;;;;;;;9.48;2.35;;;4.80;99.90;;;;;;5056956;28;20044;-62
2022/02/01 08:17:55;;;;;;;12.13;2.35;;;4.90;99.90;;;;;;5063170;28;20088;-62
2022/02/01 08:20:46;;;;;;;12.40;1.98;;;5.00;99.90;;;;;;5042346;28;20052;-63
2022/02/01 08:23:06;;;;;;;9.48;2.92;;;5.00;99.90;;;;;;5034755;28;20049;-62
2022/02/01 08:25:33;;;;;;;7.50;1.80;;;5.00;99.90;;;;;;5068466;28;20414;-62
2022/02/01 08:28:04;;;;;;;6.25;2.55;;;5.00;99.90;;;;;;5057901;28;20131;-62
2022/02/01 08:30:30;;;;;;;14.18;2.47;;;5.10;99.90;;;;;;5057843;28;20040;-62
2022/02/01 08:32:57;;;;;;;12.38;2.30;;;5.10;99.90;;;;;;5043134;28;20068;-63
2022/02/01 08:35:23;;;;;;;5.47;2.17;;;5.10;99.90;;;;;;5062954;28;20094;-62
2022/02/01 08:37:49;;;;;;;9.48;2.67;;;5.10;99.90;;;;;;5068929;28;20052;-62
2022/02/01 08:40:16;;;;;;;7.35;1.92;;;5.10;99.90;;;;;;5041599;28;20044;-62
2022/02/01 08:42:50;;;;;;;2.45;1.30;;;5.10;99.90;;;;;;5061568;28;20048;-63
2022/02/01 08:45:22;;;;;;;3.83;1.40;;;5.20;99.90;;;;;;5029903;28;20107;-63
2022/02/01 08:47:50;;;;;;;3.85;2.50;;;5.20;99.90;;;;;;5069428;28;20049;-62
2022/02/01 08:50:20;;;;;;;7.30;2.15;;;5.30;99.90;;;;;;5067499;28;20559;-63
2022/02/01 08:52:48;;;;;;;3.33;1.63;;;5.30;99.90;;;;;;5066756;28;20040;-62
2022/02/01 08:55:33;;;;;;;3.65;1.70;;;5.40;99.90;;;;;;5069036;28;20394;-63
2022/02/01 08:58:00;;;;;;;2.65;1.50;;;5.30;99.90;;;;;;5068049;28;20071;-62
2022/02/01 09:00:29;;;;;;;3.17;1.80;;;5.40;99.90;;;;;;5050271;28;20128;-63
2022/02/01 09:02:57;;;;;;;3.88;1.42;;;5.40;99.90;;;;;;5065054;28;20039;-62
2022/02/01 09:05:23;;;;;;;1.75;1.38;;;5.50;99.90;;;;;;5067998;28;20036;-62
2022/02/01 09:07:48;;;;;;;3.00;1.20;;;5.50;99.90;;;;;;5048023;28;20044;-62
2022/02/01 09:10:14;;;;;;;1.77;1.02;;;5.50;99.90;;;;;;5048309;28;20055;-63
2022/02/01 09:12:40;;;;;;;3.78;1.83;;;5.60;99.90;;;;;;5049290;28;20068;-63
2022/02/01 09:15:06;;;;;;;1.60;0.77;;;5.50;99.90;;;;;;5067202;28;20252;-62
2022/02/01 09:17:32;;;;;;;1.83;1.00;;;5.60;99.90;;;;;;5067904;28;20075;-63
2022/02/01 09:19:58;;;;;;;0.85;0.85;;;5.60;99.90;;;;;;5041976;28;20037;-63
2022/02/01 09:22:25;;;;;;;1.55;1.40;;;5.70;99.90;;;;;;5064676;28;20052;-63
2022/02/01 09:24:51;;;;;;;2.28;1.10;;;5.70;99.90;;;;;;5064514;28;20029;-63
2022/02/01 09:27:16;;;;;;;1.33;1.23;;;5.70;99.90;;;;;;5048587;28;20403;-62
2022/02/01 09:29:42;;;;;;;0.77;0.77;;;5.80;99.90;;;;;;5065023;28;20177;-63
2022/02/01 09:32:09;;;;;;;1.45;1.10;;;5.80;99.90;;;;;;5066228;28;20044;-62
2022/02/01 09:34:34;;;;;;;1.27;1.17;;;5.90;99.90;;;;;;5048520;28;20053;-63
2022/02/01 09:37:03;;;;;;;0.93;0.93;;;5.90;99.90;;;;;;5066868;28;20048;-63
2022/02/01 09:39:29;;;;;;;1.52;1.13;;;5.90;99.90;;;;;;5065299;28;20045;-63
2022/02/01 09:41:56;;;;;;;0.82;0.68;;;6.00;99.90;;;;;;5048230;28;20032;-62
2022/02/01 09:44:22;;;;;;;0.55;0.55;;;6.00;99.90;;;;;;5066530;28;20060;-63
2022/02/01 09:46:50;;;;;;;2.30;0.98;;;6.10;99.90;;;;;;5066584;28;20075;-62
2022/02/01 09:49:19;;;;;;;1.30;0.68;;;6.10;99.90;;;;;;5066708;28;20059;-63
2022/02/01 09:51:48;;;;;;;0.52;0.52;;;6.20;99.90;;;;;;5048530;28;20040;-62
2022/02/01 09:54:14;;;;;;;0.70;0.70;;;6.20;99.90;;;;;;5066903;28;20455;-63
2022/02/01 09:56:40;;;;;;;2.25;0.60;;;6.20;99.90;;;;;;5066714;28;20084;-63
2022/02/01 09:59:30;;;;;;;1.05;0.77;;;6.30;99.90;;;;;;5066378;28;20129;-63
2022/02/01 10:02:02;;;;;;;1.88;0.43;;;6.30;99.90;;;;;;5047382;28;20048;-63
2022/02/01 10:04:28;;;;;;;0.50;0.50;;;6.40;99.90;;;;;;5067153;28;20599;-63
2022/02/01 10:07:05;;;;;;;0.30;0.30;;;6.50;99.90;;;;;;5065561;28;20111;-63
2022/02/01 10:09:31;;;;;;;0.30;0.30;;;6.50;99.90;;;;;;5067169;28;20398;-63
2022/02/01 10:11:57;;;;;;;0.20;0.20;;;6.50;99.90;;;;;;5065116;28;20127;-63
2022/02/01 10:14:30;;;;;;;0.90;0.50;;;6.50;99.90;;;;;;5067345;28;20568;-63
2022/02/01 10:16:59;;;;;;;0.50;0.50;;;6.60;99.90;;;;;;5066452;28;20088;-63
2022/02/01 10:19:24;;;;;;;0.75;0.35;;;6.60;99.90;;;;;;5066795;28;20045;-63
2022/02/01 10:21:59;;;;;;;0.10;0.10;;;6.70;99.90;;;;;;5065750;28;20036;-63
2022/02/01 10:24:32;;;;;;;0.25;0.25;;;6.70;99.90;;;;;;5062691;28;20629;-63
2022/02/01 10:27:19;;;;;;;0.10;0.10;;;6.80;99.90;;;;;;5066979;28;20342;-64
2022/02/01 10:30:00;;;;;;;0.22;0.22;;;6.80;99.90;;;;;;5065367;28;20049;-63
2022/02/01 10:32:41;;;;;;;0.20;0.20;;;6.90;99.90;;;;;;5064122;28;20431;-63
2022/02/01 10:38:10;;;;;;;0.00;0.00;;;7.00;99.90;;;;;;5065262;28;20490;-63
2022/02/01 10:40:48;;;;;;;0.40;0.40;;;7.00;99.90;;;;;;5065674;28;20114;-63
2022/02/01 10:43:45;;;;;;;0.10;0.10;;;7.10;99.90;;;;;;5066576;28;20048;-64
2022/02/01 10:46:15;;;;;;;0.30;0.30;;;7.10;99.90;;;;;;5061789;28;20045;-63
2022/02/01 10:48:48;;;;;;;0.10;0.10;;;7.10;99.90;;;;;;5066709;28;20454;-63
2022/02/01 10:51:23;;;;;;;0.20;0.20;;;7.20;99.90;;;;;;5059308;28;20489;-63
2022/02/01 10:53:51;;;;;;;0.28;0.20;;;7.20;99.90;;;;;;5040245;28;20044;-64
2022/02/01 10:56:22;;;;;;;0.63;0.47;;;7.20;99.90;;;;;;5047702;28;20044;-63
2022/02/01 10:58:49;;;;;;;2.05;1.10;;;7.30;99.90;;;;;;5046979;28;20044;-63
2022/02/01 11:01:16;;;;;;;0.90;0.10;;;7.30;99.90;;;;;;5066530;28;20104;-63
2022/02/01 11:03:48;;;;;;;0.45;0.45;;;7.40;99.90;;;;;;5065086;28;20043;-63
2022/02/01 11:06:14;;;;;;;5.35;2.15;;;7.40;99.90;;;;;;5047140;28;20041;-63
2022/02/01 11:08:42;;;;;;;2.97;1.73;;;7.50;99.90;;;;;;5054395;28;20139;-63
2022/02/01 11:11:18;;;;;;;8.52;3.53;;;7.50;99.90;;;;;;5066862;28;20139;-63
2022/02/01 11:13:47;;;;;;;7.38;2.72;;;7.60;99.90;;;;;;5048081;28;20053;-63
2022/02/01 11:16:20;;;;;;;5.00;2.60;;;7.60;99.90;;;;;;5064029;28;20467;-63
2022/02/01 11:18:56;;;;;;;5.53;1.80;;;7.60;99.90;;;;;;5065618;28;20106;-64
2022/02/01 11:21:22;;;;;;;7.78;2.35;;;7.60;99.90;;;;;;5064874;28;20055;-63
2022/02/01 11:23:57;;;;;;;6.70;1.80;;;7.60;99.90;;;;;;5065207;28;20044;-63
2022/02/01 11:26:29;;;;;;;16.70;4.00;;;7.70;99.90;;;;;;5065567;28;20045;-64
2022/02/01 11:29:13;;;;;;;22.23;5.63;;;7.70;99.90;;;;;;5063012;28;20040;-63
2022/02/01 11:31:47;;;;;;;20.70;5.35;;;7.70;99.90;;;;;;5064004;28;20033;-63
2022/02/01 11:34:16;;;;;;;18.92;4.20;;;7.80;99.90;;;;;;5063819;28;20033;-63
2022/02/01 11:36:42;;;;;;;17.92;4.90;;;7.80;99.90;;;;;;5064719;28;20175;-63
2022/02/01 11:39:16;;;;;;;25.90;7.28;;;7.90;99.90;;;;;;5044607;28;20124;-63
2022/02/01 11:41:44;;;;;;;35.17;13.95;;;7.90;99.90;;;;;;5063913;28;20098;-63
2022/02/01 11:44:28;;;;;;;30.35;7.63;;;7.90;99.90;;;;;;5064370;28;20048;-64
2022/02/01 11:47:05;;;;;;;45.00;6.53;;;8.00;99.90;;;;;;5062622;28;20045;-63
2022/02/01 11:49:33;;;;;;;27.88;6.22;;;7.90;99.90;;;;;;5061549;28;20491;-63
2022/02/01 11:52:14;;;;;;;31.33;7.43;;;7.90;99.90;;;;;;5061662;28;20352;-63
2022/02/01 11:54:42;;;;;;;36.33;7.20;;;7.90;99.90;;;;;;5047016;28;20055;-63
2022/02/01 11:57:14;;;;;;;49.25;11.10;;;7.90;99.90;;;;;;5059819;28;20048;-63
2022/02/01 12:00:00;;;;;;;29.33;6.30;;;7.90;99.90;;;;;;5064425;28;20052;-63
2022/02/01 12:02:37;;;;;;;35.97;6.50;;;7.90;99.90;;;;;;5059040;28;20079;-64
2022/02/01 12:05:14;;;;;;;33.10;7.15;;;7.90;99.90;;;;;;5030284;28;20041;-63
2022/02/01 12:07:52;;;;;;;39.20;6.88;;;8.00;99.90;;;;;;5058683;28;20129;-64
2022/02/01 12:10:20;;;;;;;41.10;7.25;;;8.00;99.90;;;;;;5067169;28;20049;-63
2022/02/01 12:12:47;;;;;;;44.05;8.07;;;8.10;99.90;;;;;;5067949;28;20041;-64
2022/02/01 12:15:13;;;;;;;37.65;6.82;;;8.10;99.90;;;;;;5070038;28;20044;-64
2022/02/01 12:17:48;;;;;;;33.85;7.18;;;8.10;99.90;;;;;;5068267;28;20131;-64
2022/02/01 12:20:16;;;;;;;39.08;6.40;;;8.10;99.90;;;;;;5068064;28;20036;-63
2022/02/01 12:23:01;;;;;;;36.30;8.15;;;8.10;99.90;;;;;;5049857;28;20037;-64
2022/02/01 12:25:29;;;;;;;39.28;7.90;;;8.20;99.90;;;;;;5079157;28;20178;-64
2022/02/01 12:27:55;;;;;;;38.53;7.93;;;8.10;99.90;;;;;;5059245;28;20041;-64
2022/02/01 12:30:21;;;;;;;38.75;7.07;;;8.20;99.90;;;;;;5056986;28;20130;-64
2022/02/01 12:32:56;;;;;;;36.45;7.60;;;8.30;99.90;;;;;;5061640;28;20099;-64
2022/02/01 12:35:34;;;;;;;42.53;6.93;;;8.40;99.90;;;;;;5056525;28;20052;-64
2022/02/01 12:38:20;;;;;;;38.13;5.97;;;8.40;99.90;;;;;;5058559;28;20041;-64
2022/02/01 12:40:51;;;;;;;37.38;7.90;;;8.40;99.90;;;;;;5047885;28;20048;-64
2022/02/01 12:43:22;;;;;;;50.33;8.32;;;8.50;99.90;;;;;;5066919;28;20551;-64
2022/02/01 12:46:31;;;;;;;43.55;8.88;;;8.50;99.90;;;;;;5050507;28;20052;-64
2022/02/01 12:48:57;;;;;;;48.25;9.85;;;8.50;99.90;;;;;;5043158;28;20064;-63
2022/02/01 12:51:23;;;;;;;56.15;10.57;;;8.60;99.90;;;;;;5067508;28;20047;-64
2022/02/01 12:53:50;;;;;;;52.45;9.73;;;8.50;99.90;;;;;;5067676;28;20045;-64
2022/02/01 12:56:21;;;;;;;46.85;8.93;;;8.50;99.90;;;;;;5067104;28;20410;-64
2022/02/01 12:59:02;;;;;;;49.03;7.32;;;8.50;99.90;;;;;;5066305;28;20044;-64
2022/02/01 13:01:28;;;;;;;;;;;8.50;99.90;;;;;;5067731;28;20036;-64
2022/02/01 13:03:54;;;;;;;47.65;8.32;;;8.50;99.90;;;;;;5049397;28;20332;-64
2022/02/01 13:06:20;;;;;;;37.85;7.05;;;8.50;99.90;;;;;;5068190;28;20048;-64
2022/02/01 13:14:43;;;;;;;50.13;10.48;;;8.60;99.90;;;;;;5067990;28;20040;-64
2022/02/01 13:17:35;;;;;;;43.55;10.27;;;8.70;99.90;;;;;;5067769;28;20094;-64
2022/02/01 13:22:30;;;;;;;41.97;8.57;;;8.70;99.90;;;;;;5061352;28;20045;-64
2022/02/01 13:25:07;;;;;;;40.17;7.38;;;8.70;99.90;;;;;;5061799;28;20571;-64
2022/02/01 13:27:34;;;;;;;51.17;8.52;;;8.70;99.90;;;;;;5061851;28;20063;-64
2022/02/01 13:30:05;;;;;;;58.08;10.93;;;8.70;99.90;;;;;;5061050;28;20044;-64
2022/02/01 13:32:39;;;;;;;55.10;9.63;;;8.70;99.90;;;;;;5067591;28;20037;-64
2022/02/01 13:35:08;;;;;;;37.03;5.82;;;8.70;99.90;;;;;;5051049;28;20094;-65
2022/02/01 13:37:35;;;;;;;37.20;5.50;;;8.70;99.90;;;;;;5055281;28;20442;-63
2022/02/01 13:40:03;;;;;;;44.08;6.78;;;8.70;99.90;;;;;;5036348;28;20124;-64
2022/02/01 13:42:35;;;;;;;41.88;7.78;;;8.70;99.90;;;;;;5053501;28;20447;-63
2022/02/01 13:45:06;;;;;;;47.65;7.95;;;8.70;99.90;;;;;;5052969;28;20091;-63
2022/02/01 13:47:41;;;;;;;40.13;8.32;;;8.70;99.90;;;;;;5061791;28;20048;-63
2022/02/01 13:50:10;;;;;;;50.35;9.45;;;8.70;99.90;;;;;;5059411;28;20498;-63
2022/02/01 13:52:37;;;;;;;42.65;8.18;;;8.70;99.90;;;;;;5049910;28;21396;-63
2022/02/01 13:55:15;;;;;;;41.28;7.85;;;8.70;99.90;;;;;;5062552;28;20498;-63
2022/02/01 13:57:41;;;;;;;58.75;11.02;;;8.70;99.90;;;;;;5065263;28;20043;-63
2022/02/01 14:00:11;;;;;;;48.75;9.82;;;8.80;99.90;;;;;;5047225;28;20036;-63
2022/02/01 14:02:44;;;;;;;54.00;11.05;;;8.70;99.90;;;;;;5048956;28;20071;-63
2022/02/01 14:05:20;;;;;;;57.13;10.00;;;8.70;99.90;;;;;;5065871;28;20045;-63
2022/02/01 14:10:40;;;;;;;49.88;9.07;;;8.70;99.90;;;;;;5058800;28;20044;-63
2022/02/01 14:13:41;;;;;;;54.05;12.52;;;8.60;99.90;;;;;;5040557;28;20179;-63
2022/02/01 14:32:08;;;;;;;45.35;10.52;;;8.60;99.90;;;;;;5047805;28;20406;-63
2022/02/01 14:34:37;;;;;;;47.70;11.70;;;8.50;99.90;;;;;;5056431;28;20495;-63
2022/02/01 14:37:11;;;;;;;56.80;10.07;;;8.50;99.90;;;;;;5052007;28;20041;-63
2022/02/01 14:44:50;;;;;;;44.50;9.90;;;8.50;99.90;;;;;;5042558;28;20060;-63
2022/02/01 14:47:21;;;;;;;46.58;11.18;;;8.50;99.90;;;;;;5034019;28;20052;-63
2022/02/01 14:49:49;;;;;;;47.97;10.10;;;8.50;99.90;;;;;;5042063;28;20392;-63
2022/02/01 14:52:15;;;;;;;53.83;10.27;;;8.50;99.90;;;;;;5041648;28;20033;-63
2022/02/01 14:54:50;;;;;;;58.10;10.98;;;8.50;99.90;;;;;;5037725;28;20055;-63
2022/02/01 15:13:39;;;;;;;59.40;12.70;;;8.40;99.90;;;;;;5040355;28;20102;-63
2022/02/01 15:16:05;;;;;;;55.15;11.60;;;8.40;99.90;;;;;;5020180;28;20045;-63
2022/02/01 15:18:31;;;;;;;61.75;13.80;;;8.40;99.90;;;;;;5045934;28;20098;-63
2022/02/01 15:20:57;;;;;;;58.92;13.70;;;8.40;99.90;;;;;;5027377;28;20369;-63